TAM6700 SAWC-SAWH
Flight info
| Callsign | TAM6700 |
|---|---|
| Flight time | 0h 59m |
| Altitude | 37000 |
| Route | DEVIS UW52 GAL UW42 GRA DCT USU |
| Aircraft | A320/M-SDE3FGHIRWY/LB1 |
Departure
| Time | 2026-05-07 00:18 |
|---|---|
| Airport | El Calafate - Commander Armando Tola International Airport (SAWC) |
Arrival
| Time | 2026-05-07 01:17 |
|---|---|
| Airport | Ushuaia - Malvinas Argentinas International Airport (SAWH) |
| Time | Latitude | Longitude | Altitude | Speed | Heading |
|---|---|---|---|---|---|
| 2026-05-06 23:52 | -50.28358 | -72.05585 | 644 ft | 0 kts | 175° |
| 2026-05-07 00:10 | -50.28345 | -72.05586 | 642 ft | 2 kts | 175° |
| 2026-05-07 00:10 | -50.28328 | -72.05588 | 643 ft | 2 kts | 175° |
| 2026-05-07 00:11 | -50.28313 | -72.05590 | 642 ft | 2 kts | 175° |
| 2026-05-07 00:11 | -50.28296 | -72.05593 | 642 ft | 2 kts | 203° |
| 2026-05-07 00:11 | -50.28284 | -72.05575 | 643 ft | 2 kts | 274° |
| 2026-05-07 00:11 | -50.28291 | -72.05552 | 643 ft | 3 kts | 332° |
| 2026-05-07 00:12 | -50.28296 | -72.05547 | 643 ft | 0 kts | 339° |
| 2026-05-07 00:12 | -50.28296 | -72.05548 | 643 ft | 0 kts | 339° |
| 2026-05-07 00:12 | -50.28295 | -72.05548 | 643 ft | 0 kts | 339° |
| 2026-05-07 00:14 | -50.28273 | -72.05574 | 641 ft | 9 kts | 311° |
| 2026-05-07 00:14 | -50.28276 | -72.05710 | 641 ft | 17 kts | 266° |
| 2026-05-07 00:15 | -50.28288 | -72.05916 | 641 ft | 20 kts | 263° |
| 2026-05-07 00:15 | -50.28303 | -72.06134 | 641 ft | 21 kts | 265° |
| 2026-05-07 00:15 | -50.28303 | -72.06355 | 641 ft | 17 kts | 313° |
| 2026-05-07 00:15 | -50.28199 | -72.06385 | 642 ft | 13 kts | 41° |
| 2026-05-07 00:16 | -50.28187 | -72.06365 | 641 ft | 0 kts | 49° |
| 2026-05-07 00:16 | -50.28181 | -72.06354 | 641 ft | 7 kts | 49° |
| 2026-05-07 00:16 | -50.28119 | -72.06237 | 642 ft | 20 kts | 50° |
| 2026-05-07 00:16 | -50.28067 | -72.06118 | 643 ft | 13 kts | 83° |
| 2026-05-07 00:17 | -50.28066 | -72.06096 | 641 ft | 0 kts | 86° |
| 2026-05-07 00:17 | -50.28044 | -72.05763 | 642 ft | 77 kts | 84° |
| 2026-05-07 00:17 | -50.27970 | -72.04499 | 689 ft | 148 kts | 83° |
| 2026-05-07 00:18 | -50.27874 | -72.02857 | 1435 ft | 157 kts | 84° |
| 2026-05-07 00:18 | -50.27771 | -72.01148 | 2219 ft | 162 kts | 85° |
| 2026-05-07 00:18 | -50.27659 | -71.99286 | 2594 ft | 183 kts | 85° |
| 2026-05-07 00:18 | -50.27533 | -71.97176 | 2900 ft | 206 kts | 86° |
| 2026-05-07 00:19 | -50.27393 | -71.94838 | 3321 ft | 228 kts | 86° |
| 2026-05-07 00:19 | -50.27237 | -71.92237 | 3841 ft | 251 kts | 86° |
| 2026-05-07 00:19 | -50.27069 | -71.89456 | 4646 ft | 262 kts | 86° |
| 2026-05-07 00:19 | -50.26893 | -71.86577 | 5541 ft | 269 kts | 86° |
| 2026-05-07 00:20 | -50.26712 | -71.83634 | 6492 ft | 275 kts | 86° |
| 2026-05-07 00:20 | -50.26524 | -71.80620 | 6928 ft | 280 kts | 85° |
| 2026-05-07 00:20 | -50.26334 | -71.77597 | 7052 ft | 280 kts | 85° |
| 2026-05-07 00:20 | -50.26142 | -71.74574 | 7076 ft | 279 kts | 85° |
| 2026-05-07 00:21 | -50.25949 | -71.71553 | 7081 ft | 279 kts | 85° |
| 2026-05-07 00:21 | -50.25759 | -71.68537 | 7085 ft | 279 kts | 85° |
| 2026-05-07 00:21 | -50.25570 | -71.65520 | 7089 ft | 279 kts | 85° |
| 2026-05-07 00:21 | -50.25587 | -71.62506 | 7092 ft | 277 kts | 102° |
| 2026-05-07 00:22 | -50.26207 | -71.59730 | 7153 ft | 277 kts | 122° |
| 2026-05-07 00:22 | -50.27407 | -71.57364 | 8009 ft | 277 kts | 135° |
| 2026-05-07 00:22 | -50.28730 | -71.55162 | 9007 ft | 279 kts | 134° |
| 2026-05-07 00:22 | -50.30058 | -71.52905 | 9943 ft | 284 kts | 134° |
| 2026-05-07 00:23 | -50.31369 | -71.50660 | 11088 ft | 270 kts | 133° |
| 2026-05-07 00:23 | -50.32593 | -71.48561 | 12392 ft | 256 kts | 131° |
| 2026-05-07 00:23 | -50.33806 | -71.46509 | 12733 ft | 266 kts | 131° |
| 2026-05-07 00:23 | -50.35115 | -71.44280 | 13045 ft | 290 kts | 131° |
| 2026-05-07 00:24 | -50.36535 | -71.41856 | 13335 ft | 313 kts | 131° |
| 2026-05-07 00:24 | -50.38063 | -71.39245 | 13573 ft | 337 kts | 131° |
| 2026-05-07 00:24 | -50.39703 | -71.36441 | 13781 ft | 358 kts | 131° |
| 2026-05-07 00:24 | -50.41386 | -71.33559 | 14303 ft | 367 kts | 131° |
| 2026-05-07 00:25 | -50.43129 | -71.30577 | 14907 ft | 373 kts | 131° |
| 2026-05-07 00:25 | -50.44899 | -71.27551 | 15535 ft | 379 kts | 131° |
| 2026-05-07 00:25 | -50.46704 | -71.24468 | 16153 ft | 385 kts | 131° |
| 2026-05-07 00:25 | -50.47908 | -71.22408 | 16547 ft | 389 kts | 131° |
| 2026-05-07 00:26 | -50.49755 | -71.19249 | 17148 ft | 395 kts | 131° |
| 2026-05-07 00:26 | -50.51626 | -71.16043 | 17737 ft | 400 kts | 131° |
| 2026-05-07 00:26 | -50.53516 | -71.12797 | 18326 ft | 406 kts | 131° |
| 2026-05-07 00:26 | -50.55434 | -71.09497 | 18834 ft | 411 kts | 131° |
| 2026-05-07 00:27 | -50.57374 | -71.06155 | 19295 ft | 416 kts | 131° |
| 2026-05-07 00:27 | -50.59337 | -71.02769 | 19800 ft | 420 kts | 130° |
| 2026-05-07 00:27 | -50.61315 | -70.99352 | 20321 ft | 424 kts | 130° |
| 2026-05-07 00:27 | -50.63312 | -70.95893 | 20843 ft | 428 kts | 130° |
| 2026-05-07 00:28 | -50.65325 | -70.92403 | 21355 ft | 432 kts | 130° |
| 2026-05-07 00:28 | -50.67350 | -70.88886 | 21854 ft | 435 kts | 130° |
| 2026-05-07 00:28 | -50.69397 | -70.85323 | 22347 ft | 439 kts | 130° |
| 2026-05-07 00:28 | -50.71452 | -70.81744 | 22844 ft | 442 kts | 130° |
| 2026-05-07 00:29 | -50.73590 | -70.78214 | 23320 ft | 447 kts | 136° |
| 2026-05-07 00:29 | -50.76033 | -70.75136 | 23762 ft | 452 kts | 145° |
| 2026-05-07 00:30 | -50.84380 | -70.67899 | 24965 ft | 460 kts | 152° |
| 2026-05-07 00:30 | -50.87206 | -70.65482 | 25355 ft | 462 kts | 152° |
| 2026-05-07 00:30 | -50.90004 | -70.63079 | 25751 ft | 464 kts | 152° |
| 2026-05-07 00:30 | -50.92854 | -70.60627 | 26140 ft | 466 kts | 152° |
| 2026-05-07 00:31 | -50.95709 | -70.58172 | 26523 ft | 469 kts | 152° |
| 2026-05-07 00:31 | -50.98594 | -70.55691 | 26906 ft | 471 kts | 152° |
| 2026-05-07 00:31 | -51.01482 | -70.53199 | 27298 ft | 473 kts | 150° |
| 2026-05-07 00:31 | -51.04248 | -70.50337 | 27648 ft | 475 kts | 142° |
| 2026-05-07 00:32 | -51.06737 | -70.46867 | 28009 ft | 477 kts | 133° |
| 2026-05-07 00:32 | -51.08894 | -70.42858 | 28347 ft | 477 kts | 126° |
| 2026-05-07 00:32 | -51.10924 | -70.38642 | 28676 ft | 480 kts | 126° |
| 2026-05-07 00:32 | -51.12936 | -70.34475 | 29001 ft | 482 kts | 126° |
| 2026-05-07 00:33 | -51.14989 | -70.30236 | 29321 ft | 484 kts | 126° |
| 2026-05-07 00:33 | -51.17081 | -70.25924 | 29639 ft | 487 kts | 126° |
| 2026-05-07 00:33 | -51.19133 | -70.21690 | 29946 ft | 489 kts | 126° |
| 2026-05-07 00:33 | -51.21215 | -70.17385 | 30278 ft | 490 kts | 126° |
| 2026-05-07 00:34 | -51.23290 | -70.13079 | 30639 ft | 489 kts | 126° |
| 2026-05-07 00:34 | -51.25358 | -70.08771 | 30993 ft | 488 kts | 126° |
| 2026-05-07 00:34 | -51.27421 | -70.04461 | 31272 ft | 489 kts | 126° |
| 2026-05-07 00:34 | -51.29492 | -70.00130 | 31576 ft | 490 kts | 126° |
| 2026-05-07 00:35 | -51.31566 | -69.95795 | 31917 ft | 490 kts | 127° |
| 2026-05-07 00:35 | -51.33642 | -69.91453 | 32274 ft | 490 kts | 127° |
| 2026-05-07 00:35 | -51.35707 | -69.87120 | 32640 ft | 489 kts | 127° |
| 2026-05-07 00:35 | -51.37767 | -69.82788 | 33009 ft | 489 kts | 127° |
| 2026-05-07 00:36 | -51.39823 | -69.78454 | 33382 ft | 488 kts | 127° |
| 2026-05-07 00:36 | -51.41873 | -69.74129 | 33762 ft | 487 kts | 127° |
| 2026-05-07 00:36 | -51.43918 | -69.69808 | 34119 ft | 486 kts | 128° |
| 2026-05-07 00:36 | -51.45938 | -69.65531 | 34423 ft | 486 kts | 128° |
| 2026-05-07 00:37 | -51.47970 | -69.61216 | 34771 ft | 484 kts | 128° |
| 2026-05-07 00:37 | -51.49997 | -69.56906 | 34992 ft | 483 kts | 128° |
| 2026-05-07 00:37 | -51.54039 | -69.48305 | 35050 ft | 482 kts | 128° |
| 2026-05-07 00:38 | -51.58079 | -69.39709 | 35047 ft | 481 kts | 130° |
| 2026-05-07 00:38 | -51.62970 | -69.32450 | 35058 ft | 477 kts | 148° |
| 2026-05-07 00:39 | -51.68887 | -69.27711 | 35058 ft | 474 kts | 159° |
| 2026-05-07 00:39 | -51.74913 | -69.23517 | 35055 ft | 475 kts | 159° |
| 2026-05-07 00:40 | -51.80971 | -69.19253 | 35053 ft | 475 kts | 159° |
| 2026-05-07 00:40 | -51.87039 | -69.14982 | 35056 ft | 475 kts | 159° |
| 2026-05-07 00:41 | -51.93102 | -69.10715 | 35045 ft | 474 kts | 158° |
| 2026-05-07 00:41 | -51.99157 | -69.06441 | 35046 ft | 474 kts | 158° |
| 2026-05-07 00:42 | -52.05206 | -69.02156 | 35046 ft | 474 kts | 158° |
| 2026-05-07 00:42 | -52.11249 | -68.97851 | 35050 ft | 474 kts | 158° |
| 2026-05-07 00:43 | -52.17289 | -68.93548 | 35047 ft | 473 kts | 158° |
| 2026-05-07 00:43 | -52.23329 | -68.89239 | 35048 ft | 473 kts | 158° |
| 2026-05-07 00:44 | -52.29360 | -68.84924 | 35046 ft | 473 kts | 158° |
| 2026-05-07 00:44 | -52.35351 | -68.80619 | 35047 ft | 474 kts | 158° |
| 2026-05-07 00:45 | -52.41388 | -68.76266 | 35048 ft | 474 kts | 158° |
| 2026-05-07 00:45 | -52.47423 | -68.71905 | 35048 ft | 474 kts | 158° |
| 2026-05-07 00:46 | -52.53449 | -68.67533 | 35052 ft | 474 kts | 158° |
| 2026-05-07 00:46 | -52.59482 | -68.63145 | 35050 ft | 474 kts | 158° |
| 2026-05-07 00:47 | -52.65513 | -68.58734 | 35054 ft | 474 kts | 158° |
| 2026-05-07 00:47 | -52.71555 | -68.54311 | 35057 ft | 475 kts | 158° |
| 2026-05-07 00:48 | -52.77593 | -68.49871 | 35057 ft | 475 kts | 158° |
| 2026-05-07 00:48 | -52.83627 | -68.45432 | 35059 ft | 475 kts | 158° |
| 2026-05-07 00:49 | -52.89673 | -68.40990 | 35063 ft | 475 kts | 158° |
| 2026-05-07 00:49 | -52.95709 | -68.36523 | 35062 ft | 475 kts | 157° |
| 2026-05-07 00:50 | -53.01702 | -68.32059 | 35081 ft | 475 kts | 157° |
| 2026-05-07 00:50 | -53.07748 | -68.27550 | 35071 ft | 475 kts | 157° |
| 2026-05-07 00:51 | -53.13786 | -68.23054 | 35071 ft | 475 kts | 158° |
| 2026-05-07 00:51 | -53.19821 | -68.18537 | 35076 ft | 475 kts | 157° |
| 2026-05-07 00:52 | -53.25868 | -68.13999 | 35080 ft | 475 kts | 157° |
| 2026-05-07 00:52 | -53.31852 | -68.09480 | 35079 ft | 475 kts | 157° |
| 2026-05-07 00:53 | -53.37869 | -68.04929 | 35079 ft | 474 kts | 157° |
| 2026-05-07 00:53 | -53.43889 | -68.00372 | 35079 ft | 475 kts | 157° |
| 2026-05-07 00:54 | -53.49907 | -67.95795 | 35082 ft | 474 kts | 157° |
| 2026-05-07 00:54 | -53.55903 | -67.91207 | 35083 ft | 473 kts | 157° |
| 2026-05-07 00:55 | -53.61900 | -67.86618 | 35084 ft | 473 kts | 157° |
| 2026-05-07 00:55 | -53.67898 | -67.82014 | 35084 ft | 473 kts | 157° |
| 2026-05-07 00:56 | -53.73979 | -67.77889 | 34512 ft | 466 kts | 167° |
| 2026-05-07 00:56 | -53.77173 | -67.76896 | 32801 ft | 470 kts | 178° |
| 2026-05-07 00:56 | -53.80457 | -67.76877 | 30991 ft | 473 kts | 188° |
| 2026-05-07 00:57 | -53.83714 | -67.77718 | 29059 ft | 475 kts | 196° |
| 2026-05-07 00:57 | -53.86900 | -67.79247 | 27478 ft | 474 kts | 200° |
| 2026-05-07 00:57 | -53.89971 | -67.80774 | 27079 ft | 454 kts | 199° |
| 2026-05-07 00:57 | -53.92955 | -67.82236 | 26531 ft | 440 kts | 199° |
| 2026-05-07 00:58 | -53.95864 | -67.83666 | 25822 ft | 430 kts | 199° |
| 2026-05-07 00:58 | -53.98708 | -67.85072 | 25166 ft | 421 kts | 200° |
| 2026-05-07 00:58 | -54.01503 | -67.86466 | 24513 ft | 417 kts | 200° |
| 2026-05-07 00:58 | -54.04276 | -67.87850 | 23888 ft | 414 kts | 199° |
| 2026-05-07 00:59 | -54.09776 | -67.90599 | 22566 ft | 408 kts | 199° |
| 2026-05-07 00:59 | -54.12500 | -67.91964 | 21982 ft | 405 kts | 199° |
| 2026-05-07 00:59 | -54.15156 | -67.93295 | 21427 ft | 401 kts | 199° |
| 2026-05-07 01:00 | -54.17826 | -67.94638 | 20877 ft | 397 kts | 199° |
| 2026-05-07 01:00 | -54.20464 | -67.95969 | 20363 ft | 393 kts | 199° |
| 2026-05-07 01:00 | -54.23077 | -67.97287 | 19849 ft | 390 kts | 199° |
| 2026-05-07 01:00 | -54.25665 | -67.98596 | 19362 ft | 386 kts | 199° |
| 2026-05-07 01:01 | -54.28229 | -67.99895 | 18879 ft | 383 kts | 199° |
| 2026-05-07 01:01 | -54.30772 | -68.01184 | 18406 ft | 380 kts | 199° |
| 2026-05-07 01:01 | -54.33293 | -68.02459 | 17893 ft | 376 kts | 198° |
| 2026-05-07 01:01 | -54.35787 | -68.03724 | 17411 ft | 372 kts | 198° |
| 2026-05-07 01:02 | -54.38257 | -68.04980 | 16940 ft | 368 kts | 198° |
| 2026-05-07 01:02 | -54.40699 | -68.06224 | 16453 ft | 365 kts | 198° |
| 2026-05-07 01:02 | -54.43130 | -68.07467 | 15967 ft | 362 kts | 198° |
| 2026-05-07 01:02 | -54.45516 | -68.08689 | 15465 ft | 361 kts | 198° |
| 2026-05-07 01:03 | -54.47912 | -68.09919 | 14968 ft | 359 kts | 197° |
| 2026-05-07 01:03 | -54.50302 | -68.11146 | 14430 ft | 357 kts | 196° |
| 2026-05-07 01:03 | -54.52689 | -68.12358 | 13902 ft | 356 kts | 196° |
| 2026-05-07 01:03 | -54.55063 | -68.13563 | 13305 ft | 355 kts | 196° |
| 2026-05-07 01:04 | -54.57420 | -68.14766 | 12771 ft | 352 kts | 196° |
| 2026-05-07 01:04 | -54.59758 | -68.15965 | 12211 ft | 349 kts | 197° |
| 2026-05-07 01:04 | -54.62076 | -68.17161 | 11650 ft | 346 kts | 197° |
| 2026-05-07 01:04 | -54.64376 | -68.18351 | 11084 ft | 344 kts | 197° |
| 2026-05-07 01:05 | -54.66643 | -68.19524 | 10782 ft | 334 kts | 197° |
| 2026-05-07 01:05 | -54.68819 | -68.20649 | 10658 ft | 320 kts | 197° |
| 2026-05-07 01:05 | -54.70906 | -68.21728 | 10522 ft | 304 kts | 197° |
| 2026-05-07 01:05 | -54.72886 | -68.22755 | 10292 ft | 293 kts | 197° |
| 2026-05-07 01:06 | -54.74824 | -68.23759 | 10033 ft | 288 kts | 197° |
| 2026-05-07 01:06 | -54.76730 | -68.24748 | 9898 ft | 286 kts | 197° |
| 2026-05-07 01:06 | -54.78611 | -68.25726 | 9762 ft | 285 kts | 197° |
| 2026-05-07 01:06 | -54.80517 | -68.26646 | 9624 ft | 284 kts | 189° |
| 2026-05-07 01:07 | -54.82482 | -68.26636 | 9343 ft | 283 kts | 168° |
| 2026-05-07 01:07 | -54.84293 | -68.25368 | 8956 ft | 281 kts | 146° |
| 2026-05-07 01:07 | -54.85695 | -68.23060 | 8589 ft | 278 kts | 125° |
| 2026-05-07 01:07 | -54.86723 | -68.20227 | 8145 ft | 278 kts | 121° |
| 2026-05-07 01:08 | -54.87735 | -68.17371 | 7752 ft | 277 kts | 122° |
| 2026-05-07 01:08 | -54.88744 | -68.14540 | 7372 ft | 274 kts | 122° |
| 2026-05-07 01:08 | -54.89741 | -68.11736 | 7000 ft | 271 kts | 122° |
| 2026-05-07 01:08 | -54.90708 | -68.09014 | 6631 ft | 258 kts | 122° |
| 2026-05-07 01:09 | -54.91625 | -68.06420 | 6271 ft | 245 kts | 122° |
| 2026-05-07 01:09 | -54.92502 | -68.03944 | 5932 ft | 239 kts | 123° |
| 2026-05-07 01:09 | -54.93077 | -68.02325 | 5716 ft | 237 kts | 123° |
| 2026-05-07 01:09 | -54.93937 | -67.99902 | 5393 ft | 234 kts | 123° |
| 2026-05-07 01:10 | -54.94738 | -67.97460 | 5132 ft | 230 kts | 112° |
| 2026-05-07 01:10 | -54.94905 | -67.94760 | 4956 ft | 225 kts | 81° |
| 2026-05-07 01:10 | -54.94276 | -67.92317 | 4788 ft | 223 kts | 51° |
| 2026-05-07 01:10 | -54.93047 | -67.90766 | 4601 ft | 219 kts | 20° |
| 2026-05-07 01:11 | -54.91568 | -67.90465 | 4438 ft | 213 kts | 350° |
| 2026-05-07 01:11 | -54.90226 | -67.91386 | 4284 ft | 205 kts | 321° |
| 2026-05-07 01:11 | -54.89324 | -67.93216 | 4146 ft | 196 kts | 294° |
| 2026-05-07 01:11 | -54.88964 | -67.95393 | 3983 ft | 182 kts | 278° |
| 2026-05-07 01:12 | -54.88634 | -67.97487 | 3710 ft | 177 kts | 282° |
| 2026-05-07 01:12 | -54.88317 | -67.99526 | 3454 ft | 172 kts | 286° |
| 2026-05-07 01:12 | -54.87958 | -68.01447 | 3234 ft | 163 kts | 284° |
| 2026-05-07 01:12 | -54.87656 | -68.03326 | 3011 ft | 159 kts | 283° |
| 2026-05-07 01:13 | -54.87372 | -68.05166 | 2806 ft | 156 kts | 283° |
| 2026-05-07 01:13 | -54.87094 | -68.06970 | 2606 ft | 153 kts | 283° |
| 2026-05-07 01:13 | -54.86821 | -68.08747 | 2406 ft | 151 kts | 284° |
| 2026-05-07 01:13 | -54.86550 | -68.10495 | 2204 ft | 149 kts | 284° |
| 2026-05-07 01:14 | -54.86283 | -68.12221 | 2007 ft | 147 kts | 284° |
| 2026-05-07 01:14 | -54.86020 | -68.13929 | 1814 ft | 146 kts | 284° |
| 2026-05-07 01:14 | -54.85761 | -68.15616 | 1535 ft | 144 kts | 285° |
| 2026-05-07 01:14 | -54.85508 | -68.17275 | 1405 ft | 141 kts | 285° |
| 2026-05-07 01:15 | -54.85255 | -68.18925 | 1225 ft | 141 kts | 284° |
| 2026-05-07 01:15 | -54.85003 | -68.20573 | 1023 ft | 141 kts | 283° |
| 2026-05-07 01:15 | -54.84698 | -68.22193 | 772 ft | 141 kts | 289° |
| 2026-05-07 01:15 | -54.84380 | -68.23779 | 539 ft | 141 kts | 285° |
| 2026-05-07 01:16 | -54.84206 | -68.25420 | 354 ft | 136 kts | 272° |
| 2026-05-07 01:16 | -54.84229 | -68.27041 | 173 ft | 134 kts | 266° |
| 2026-05-07 01:16 | -54.84293 | -68.28621 | 82 ft | 124 kts | 266° |
| 2026-05-07 01:16 | -54.84336 | -68.29716 | 86 ft | 53 kts | 266° |
| 2026-05-07 01:17 | -54.84358 | -68.30311 | 81 ft | 47 kts | 266° |
| 2026-05-07 01:17 | -54.84378 | -68.30816 | 101 ft | 20 kts | 266° |
| 2026-05-07 01:17 | -54.84302 | -68.30959 | 86 ft | 20 kts | 353° |
| 2026-05-07 01:17 | -54.84159 | -68.30977 | 83 ft | 19 kts | 354° |
| 2026-05-07 01:18 | -54.84086 | -68.31039 | 84 ft | 12 kts | 275° |
| 2026-05-07 01:18 | -54.84068 | -68.31105 | 85 ft | 5 kts | 1° |
| 2026-05-07 01:18 | -54.84038 | -68.31108 | 84 ft | 4 kts | 348° |
| 2026-05-07 01:18 | -54.84022 | -68.31111 | 84 ft | 0 kts | 356° |